createdAt,value
2018-11-25T00:01:17.381Z,22.47
2018-11-25T00:03:44.548Z,21.40
2018-11-25T00:06:11.747Z,21.83
2018-11-25T00:08:38.909Z,21.83
2018-11-25T00:11:06.138Z,22.67
2018-11-25T00:13:33.301Z,21.83
2018-11-25T00:16:00.486Z,21.07
2018-11-25T00:18:27.675Z,21.10
2018-11-25T00:20:54.904Z,22.73
2018-11-25T00:23:22.073Z,21.57
2018-11-25T00:25:49.239Z,21.60
2018-11-25T00:28:16.426Z,20.63
2018-11-25T00:30:43.666Z,20.97
2018-11-25T00:33:10.796Z,21.07
2018-11-25T00:35:37.977Z,21.27
2018-11-25T00:38:05.163Z,20.67
2018-11-25T00:40:32.418Z,21.90
2018-11-25T00:42:59.602Z,21.73
2018-11-25T00:45:26.772Z,21.50
2018-11-25T00:47:53.947Z,22.30
2018-11-25T00:50:21.125Z,22.50
2018-11-25T00:52:48.322Z,21.50
2018-11-25T00:55:16.288Z,23.23
2018-11-25T00:57:43.493Z,24.00
2018-11-25T01:00:15.569Z,22.50
2018-11-25T01:02:42.804Z,22.13
2018-11-25T01:05:10.298Z,23.57
2018-11-25T01:07:37.663Z,23.83
2018-11-25T01:10:06.785Z,22.03
2018-11-25T01:12:33.969Z,21.47
2018-11-25T01:15:01.235Z,19.87
2018-11-25T01:17:28.411Z,20.23
2018-11-25T01:19:55.577Z,20.50
2018-11-25T01:22:22.801Z,20.67
2018-11-25T01:24:50.023Z,20.90
2018-11-25T01:27:17.209Z,20.50
2018-11-25T01:29:44.372Z,21.13
2018-11-25T01:32:11.591Z,22.67
2018-11-25T01:34:38.769Z,24.30
2018-11-25T01:37:06.037Z,23.43
2018-11-25T01:39:33.368Z,22.33
2018-11-25T01:42:00.532Z,24.40
2018-11-25T01:44:27.712Z,23.93
2018-11-25T01:46:54.890Z,23.33
2018-11-25T01:49:22.628Z,24.47
2018-11-25T01:51:49.284Z,26.30
2018-11-25T01:54:16.502Z,32.20
2018-11-25T01:56:43.713Z,29.77
2018-11-25T01:59:10.898Z,27.07
2018-11-25T02:01:38.073Z,26.17
2018-11-25T02:04:05.273Z,30.13
2018-11-25T02:06:32.453Z,28.30
2018-11-25T02:08:59.643Z,26.47
2018-11-25T02:11:26.833Z,27.37
2018-11-25T02:13:54.041Z,26.10
2018-11-25T02:16:21.213Z,27.70
2018-11-25T02:18:48.401Z,26.10
2018-11-25T02:21:15.600Z,25.73
2018-11-25T02:23:42.801Z,26.77
2018-11-25T02:26:09.980Z,26.73
2018-11-25T02:28:37.170Z,26.07
2018-11-25T02:31:04.399Z,27.40
2018-11-25T02:33:31.581Z,24.50
2018-11-25T02:35:58.752Z,24.43
2018-11-25T02:38:25.943Z,24.27
2018-11-25T02:40:53.108Z,24.50
2018-11-25T02:43:20.294Z,25.30
2018-11-25T02:45:47.526Z,23.70
2018-11-25T02:48:14.714Z,24.20
2018-11-25T02:50:41.899Z,24.93
2018-11-25T02:53:09.084Z,24.17
2018-11-25T02:55:36.293Z,25.87
2018-11-25T02:58:03.733Z,23.93
2018-11-25T03:00:30.928Z,25.83
2018-11-25T03:02:58.122Z,27.73
2018-11-25T03:05:25.328Z,25.23
2018-11-25T03:07:52.509Z,26.33
2018-11-25T03:10:19.717Z,26.53
2018-11-25T03:12:46.912Z,25.90
2018-11-25T03:15:14.944Z,25.97
2018-11-25T03:17:42.112Z,26.10
2018-11-25T03:20:12.424Z,24.67
2018-11-25T03:22:39.633Z,25.07
2018-11-25T03:25:14.995Z,25.27
2018-11-25T03:27:42.181Z,23.87
2018-11-25T03:30:14.531Z,22.50
2018-11-25T03:32:42.064Z,22.13
2018-11-25T03:35:10.364Z,24.07
2018-11-25T03:37:37.525Z,23.57
2018-11-25T03:40:07.640Z,22.00
2018-11-25T03:42:34.811Z,21.67
2018-11-25T03:45:02.016Z,22.00
2018-11-25T03:47:29.180Z,21.13
2018-11-25T03:49:56.369Z,21.60
2018-11-25T03:52:23.558Z,21.83
2018-11-25T03:54:50.746Z,21.50
2018-11-25T03:57:17.912Z,20.03
2018-11-25T03:59:45.100Z,19.07
2018-11-25T04:02:12.257Z,21.07
2018-11-25T04:04:39.467Z,20.17
2018-11-25T04:07:06.633Z,21.13
2018-11-25T04:09:33.817Z,20.23
2018-11-25T04:12:00.983Z,21.00
2018-11-25T04:14:28.291Z,19.77
2018-11-25T04:16:55.488Z,17.93
2018-11-25T04:19:22.689Z,19.03
2018-11-25T04:21:49.866Z,18.90
2018-11-25T04:24:17.053Z,20.50
2018-11-25T04:26:44.241Z,19.30
2018-11-25T04:29:11.426Z,19.87
2018-11-25T04:31:38.669Z,19.30
2018-11-25T04:34:05.844Z,19.70
2018-11-25T04:36:33.055Z,19.97
2018-11-25T04:39:00.224Z,20.23
2018-11-25T04:41:27.404Z,19.73
2018-11-25T04:43:54.577Z,19.70
2018-11-25T04:46:21.749Z,20.13
2018-11-25T04:48:48.943Z,18.37
2018-11-25T04:51:16.115Z,18.27
2018-11-25T04:53:43.287Z,19.47
2018-11-25T04:56:10.481Z,19.60
2018-11-25T04:58:37.636Z,19.97
2018-11-25T05:01:04.834Z,20.40
2018-11-25T05:03:32.007Z,18.13
2018-11-25T05:05:59.180Z,18.23
2018-11-25T05:08:26.360Z,18.80
2018-11-25T05:10:53.564Z,19.33
2018-11-25T05:13:20.775Z,19.17
2018-11-25T05:15:47.962Z,18.80
2018-11-25T05:18:15.129Z,18.67
2018-11-25T05:20:42.316Z,19.37
2018-11-25T05:23:09.489Z,19.60
2018-11-25T05:25:36.667Z,18.93
2018-11-25T05:28:04.177Z,18.77
2018-11-25T05:30:31.370Z,19.50
2018-11-25T05:32:58.545Z,19.37
2018-11-25T05:35:25.725Z,20.07
2018-11-25T05:37:52.904Z,20.63
2018-11-25T05:40:20.099Z,20.00
2018-11-25T05:42:47.291Z,20.93
2018-11-25T05:45:15.624Z,21.17
2018-11-25T05:47:42.769Z,21.20
2018-11-25T05:50:11.299Z,21.20
2018-11-25T05:52:38.628Z,21.53
2018-11-25T05:55:06.941Z,21.00
2018-11-25T05:57:34.377Z,22.23
2018-11-25T06:00:01.595Z,22.57
2018-11-25T06:02:28.777Z,21.00
2018-11-25T06:04:55.959Z,19.77
2018-11-25T06:07:23.133Z,19.97
2018-11-25T06:09:50.317Z,19.93
2018-11-25T06:12:17.483Z,19.73
2018-11-25T06:14:44.672Z,19.80
2018-11-25T06:17:11.853Z,20.30
2018-11-25T06:19:39.027Z,21.17
2018-11-25T06:22:06.208Z,21.57
2018-11-25T06:24:33.393Z,21.53
2018-11-25T06:27:00.572Z,20.20
2018-11-25T06:29:27.743Z,21.63
2018-11-25T06:31:54.919Z,20.07
2018-11-25T06:34:22.113Z,23.73
2018-11-25T06:36:49.327Z,34.43
2018-11-25T06:39:16.456Z,50.63
2018-11-25T06:41:43.637Z,56.90
2018-11-25T06:44:10.791Z,39.50
2018-11-25T06:46:37.968Z,35.73
2018-11-25T06:49:05.337Z,86.63
2018-11-25T06:51:32.512Z,71.40
2018-11-25T06:53:59.679Z,51.03
2018-11-25T06:56:27.479Z,41.47
2018-11-25T06:58:54.049Z,35.50
2018-11-25T07:01:21.237Z,28.63
2018-11-25T07:03:48.460Z,25.53
2018-11-25T07:06:15.656Z,24.10
2018-11-25T07:08:42.820Z,20.87
2018-11-25T07:11:10.017Z,21.80
2018-11-25T07:13:37.369Z,20.50
2018-11-25T07:16:06.502Z,21.83
2018-11-25T07:18:32.577Z,22.37
2018-11-25T07:20:59.782Z,24.33
2018-11-25T07:23:27.061Z,26.30
2018-11-25T07:25:54.488Z,28.00
2018-11-25T07:28:21.665Z,26.93
2018-11-25T07:30:48.848Z,24.60
2018-11-25T07:33:16.012Z,22.97
2018-11-25T07:35:43.233Z,21.17
2018-11-25T07:38:10.393Z,21.40
2018-11-25T07:40:37.582Z,21.60
2018-11-25T07:43:04.893Z,19.60
2018-11-25T07:45:32.205Z,20.80
2018-11-25T07:47:59.481Z,22.30
2018-11-25T07:50:26.660Z,20.87
2018-11-25T07:52:53.901Z,20.97
2018-11-25T07:55:23.191Z,19.17
2018-11-25T07:57:51.300Z,20.70
2018-11-25T08:00:19.516Z,20.30
2018-11-25T08:02:46.792Z,20.60
2018-11-25T08:05:15.342Z,20.73
2018-11-25T08:07:42.521Z,21.20
2018-11-25T08:10:12.612Z,21.10
2018-11-25T08:12:39.864Z,22.23
2018-11-25T08:15:11.928Z,23.10
2018-11-25T08:17:39.305Z,23.20
2018-11-25T08:20:08.847Z,23.83
2018-11-25T08:22:36.054Z,25.00
2018-11-25T08:25:03.727Z,25.20
2018-11-25T08:27:30.973Z,25.90
2018-11-25T08:29:58.347Z,26.43
2018-11-25T08:32:25.525Z,27.87
2018-11-25T08:34:52.692Z,28.80
2018-11-25T08:37:19.896Z,28.50
2018-11-25T08:39:47.112Z,29.10
2018-11-25T08:42:14.336Z,28.53
2018-11-25T08:44:41.519Z,27.90
2018-11-25T08:48:33.386Z,27.80
2018-11-25T08:51:00.570Z,26.20
2018-11-25T08:53:27.774Z,26.00
2018-11-25T08:55:55.043Z,26.10
2018-11-25T08:58:22.213Z,24.10
2018-11-25T09:00:49.440Z,25.50
2018-11-25T09:03:16.703Z,26.67
2018-11-25T09:05:43.956Z,26.13
2018-11-25T09:08:11.140Z,25.33
2018-11-25T09:10:38.321Z,25.53
2018-11-25T09:13:05.830Z,26.70
2018-11-25T09:15:33.007Z,27.27
2018-11-25T09:18:00.221Z,27.70
2018-11-25T09:20:27.474Z,27.93
2018-11-25T09:22:54.660Z,27.90
2018-11-25T09:25:24.094Z,28.57
2018-11-25T09:27:51.513Z,27.43
2018-11-25T09:30:21.781Z,28.87
2018-11-25T09:32:48.988Z,27.33
2018-11-25T09:35:16.666Z,26.70
2018-11-25T09:37:43.869Z,28.27
2018-11-25T09:40:14.127Z,28.17
2018-11-25T09:42:41.535Z,29.63
2018-11-25T09:45:12.732Z,30.27
2018-11-25T09:50:03.379Z,30.80
2018-11-25T09:52:30.661Z,29.77
2018-11-25T09:54:57.901Z,28.83
2018-11-25T09:57:25.082Z,27.63
2018-11-25T09:59:52.303Z,27.50
2018-11-25T10:02:19.509Z,26.80
2018-11-25T10:04:46.679Z,26.27
2018-11-25T10:07:14.021Z,27.63
2018-11-25T10:09:41.484Z,27.40
2018-11-25T10:12:08.677Z,26.37
2018-11-25T10:14:35.908Z,27.20
2018-11-25T10:17:03.142Z,25.30
2018-11-25T10:19:30.308Z,25.27
2018-11-25T10:21:57.501Z,25.97
2018-11-25T10:24:24.729Z,25.93
2018-11-25T10:26:51.921Z,27.23
2018-11-25T10:29:19.093Z,25.93
2018-11-25T10:31:46.277Z,26.07
2018-11-25T10:34:13.448Z,25.67
2018-11-25T10:36:41.246Z,27.10
2018-11-25T10:39:08.485Z,27.13
2018-11-25T10:41:35.829Z,25.43
2018-11-25T10:44:03.085Z,24.77
2018-11-25T10:46:30.321Z,25.00
2018-11-25T10:48:57.514Z,23.93
2018-11-25T10:51:24.709Z,24.30
2018-11-25T10:53:51.968Z,24.83
2018-11-25T10:56:19.156Z,23.10
2018-11-25T10:58:46.384Z,24.47
2018-11-25T11:01:19.272Z,25.60
2018-11-25T11:03:52.214Z,23.63
2018-11-25T11:06:25.244Z,23.97
2018-11-25T11:08:52.492Z,22.83
2018-11-25T11:11:19.777Z,23.70
2018-11-25T11:13:46.953Z,24.00
2018-11-25T11:16:14.144Z,23.67
2018-11-25T11:18:41.337Z,25.23
2018-11-25T11:21:08.553Z,25.23
2018-11-25T11:23:35.798Z,25.63
2018-11-25T11:26:07.096Z,26.53
2018-11-25T11:28:30.300Z,26.07
2018-11-25T11:30:57.478Z,25.87
2018-11-25T11:33:24.692Z,26.07
2018-11-25T11:35:51.976Z,26.77
2018-11-25T11:38:19.148Z,26.03
2018-11-25T11:40:46.321Z,25.40
2018-11-25T11:43:13.576Z,24.17
2018-11-25T11:45:40.944Z,23.20
2018-11-25T11:48:08.140Z,23.23
2018-11-25T11:50:35.315Z,23.47
2018-11-25T11:53:02.597Z,22.57
2018-11-25T11:56:39.934Z,22.13
2018-11-25T11:59:00.448Z,22.37
2018-11-25T12:01:27.655Z,24.13
2018-11-25T12:03:54.916Z,23.10
2018-11-25T12:06:22.116Z,24.47
2018-11-25T12:08:49.299Z,27.37
2018-11-25T12:11:16.576Z,28.13
2018-11-25T12:13:43.837Z,25.47
2018-11-25T12:16:11.094Z,28.30
2018-11-25T12:18:38.370Z,28.90
2018-11-25T12:21:05.888Z,27.20
2018-11-25T12:23:33.147Z,30.40
2018-11-25T12:26:00.316Z,30.83
2018-11-25T12:28:27.507Z,30.10
2018-11-25T12:30:54.687Z,30.40
2018-11-25T12:33:21.889Z,30.63
2018-11-25T12:35:49.104Z,29.23
2018-11-25T12:38:16.295Z,28.07
2018-11-25T12:40:43.509Z,26.57
2018-11-25T12:43:10.774Z,26.87
2018-11-25T12:45:37.964Z,27.63
2018-11-25T12:48:05.528Z,27.70
2018-11-25T12:50:32.707Z,26.43
2018-11-25T12:52:59.984Z,26.80
2018-11-25T12:55:27.228Z,25.30
2018-11-25T12:57:55.241Z,24.87
2018-11-25T13:00:32.629Z,25.67
2018-11-25T13:02:59.800Z,25.20
2018-11-25T13:05:27.108Z,24.33
2018-11-25T13:07:54.299Z,24.93
2018-11-25T13:10:21.504Z,23.07
2018-11-25T13:12:48.768Z,24.53
2018-11-25T13:15:15.959Z,22.80
2018-11-25T13:17:43.133Z,23.00
2018-11-25T13:20:12.545Z,22.93
2018-11-25T13:22:40.059Z,21.00
2018-11-25T13:25:08.664Z,20.87
2018-11-25T13:27:35.856Z,21.20
2018-11-25T13:30:04.289Z,19.63
2018-11-25T13:32:31.464Z,19.77
2018-11-25T13:34:58.637Z,19.60
2018-11-25T13:37:25.884Z,19.90
2018-11-25T13:39:53.102Z,18.13
2018-11-25T13:42:20.298Z,18.70
2018-11-25T13:44:46.572Z,19.40
2018-11-25T13:47:13.881Z,21.50
2018-11-25T13:49:41.156Z,21.60
2018-11-25T13:52:08.634Z,21.30
2018-11-25T13:54:36.740Z,21.93
2018-11-25T13:57:04.446Z,22.47
2018-11-25T13:59:31.637Z,22.87
2018-11-25T14:01:58.916Z,22.83
2018-11-25T14:04:26.107Z,23.60
2018-11-25T14:06:53.327Z,23.30
2018-11-25T14:09:21.036Z,23.43
2018-11-25T14:11:48.333Z,23.83
2018-11-25T14:14:15.724Z,24.87
2018-11-25T14:16:43.141Z,24.27
2018-11-25T14:19:10.328Z,24.03
2018-11-25T14:21:37.514Z,24.87
2018-11-25T14:24:04.739Z,24.63
2018-11-25T14:26:35.479Z,25.77
2018-11-25T14:29:02.827Z,25.80
2018-11-25T14:31:30.080Z,24.87
2018-11-25T14:33:57.287Z,26.30
2018-11-25T14:36:24.493Z,25.10
2018-11-25T14:38:51.745Z,25.53
2018-11-25T14:41:18.944Z,24.53
2018-11-25T14:43:46.215Z,25.07
2018-11-25T14:46:13.409Z,28.17
2018-11-25T14:48:40.603Z,26.50
2018-11-25T14:51:07.794Z,27.47
2018-11-25T14:53:34.983Z,27.87
2018-11-25T14:56:02.389Z,29.00
2018-11-25T14:58:29.675Z,28.10
2018-11-25T15:00:56.870Z,26.17
2018-11-25T15:03:24.084Z,25.47
2018-11-25T15:05:51.293Z,25.23
2018-11-25T15:08:20.409Z,26.27
2018-11-25T15:10:47.617Z,26.00
2018-11-25T15:13:14.798Z,26.23
2018-11-25T15:15:42.131Z,25.87
2018-11-25T15:18:09.421Z,26.30
2018-11-25T15:20:36.658Z,24.60
2018-11-25T15:23:06.993Z,26.13
2018-11-25T15:25:36.060Z,26.13
2018-11-25T15:28:03.368Z,51.00
2018-11-25T15:30:30.582Z,56.57
2018-11-25T15:32:57.817Z,47.80
2018-11-25T15:35:25.009Z,30.53
2018-11-25T15:37:52.984Z,25.37
2018-11-25T15:40:23.677Z,26.03
2018-11-25T15:42:51.015Z,25.20
2018-11-25T15:45:18.297Z,24.90
2018-11-25T15:47:48.137Z,25.30
2018-11-25T15:50:17.956Z,26.63
2018-11-25T15:52:45.181Z,24.20
2018-11-25T15:55:13.325Z,24.83
2018-11-25T15:57:40.618Z,25.03
2018-11-25T16:00:14.597Z,23.73
2018-11-25T16:02:41.816Z,25.17
2018-11-25T16:05:10.680Z,23.87
2018-11-25T16:07:37.890Z,23.43
2018-11-25T16:10:08.815Z,23.60
2018-11-25T16:12:36.005Z,22.97
2018-11-25T16:15:03.809Z,23.30
2018-11-25T16:17:30.984Z,23.97
2018-11-25T16:19:58.240Z,22.97
2018-11-25T16:22:25.440Z,23.47
2018-11-25T16:24:52.660Z,22.83
2018-11-25T16:27:20.385Z,22.97
2018-11-25T16:29:47.601Z,22.47
2018-11-25T16:32:14.800Z,24.23
2018-11-25T16:34:42.015Z,24.03
2018-11-25T16:37:09.205Z,24.80
2018-11-25T16:39:36.461Z,23.10
2018-11-25T16:42:03.717Z,30.50
2018-11-25T16:44:30.887Z,24.77
2018-11-25T16:46:58.080Z,24.27
2018-11-25T16:49:33.286Z,23.13
2018-11-25T16:51:59.223Z,24.23
2018-11-25T16:54:26.390Z,24.60
2018-11-25T16:56:53.612Z,26.30
2018-11-25T16:59:26.596Z,30.00
2018-11-25T17:04:50.244Z,29.50
2018-11-25T17:07:35.098Z,29.33
2018-11-25T17:10:16.777Z,31.93
2018-11-25T17:12:51.997Z,32.73
2018-11-25T17:15:21.498Z,24.87
2018-11-25T17:17:48.696Z,23.47
2018-11-25T17:20:15.890Z,24.40
2018-11-25T17:25:42.240Z,24.17
2018-11-25T17:28:14.399Z,22.03
2018-11-25T17:30:41.588Z,23.60
2018-11-25T17:33:08.858Z,23.93
2018-11-25T17:38:36.166Z,23.20
2018-11-25T17:41:03.392Z,22.90
2018-11-25T17:43:37.976Z,22.67
2018-11-25T17:49:02.680Z,22.23
2018-11-25T17:51:53.135Z,22.90
2018-11-25T17:54:20.317Z,22.57
2018-11-25T17:57:11.209Z,21.00
2018-11-25T17:59:38.378Z,21.13
2018-11-25T18:02:05.918Z,21.13
2018-11-25T18:04:32.860Z,20.90
2018-11-25T18:07:00.121Z,20.83
2018-11-25T18:09:27.309Z,22.17
2018-11-25T18:12:01.820Z,22.50
2018-11-25T18:14:29.015Z,22.80
2018-11-25T18:16:58.266Z,21.40
2018-11-25T18:19:26.518Z,22.70
2018-11-25T18:21:58.870Z,22.50
2018-11-25T18:24:26.274Z,24.10
2018-11-25T18:26:53.487Z,23.50
2018-11-25T18:29:20.672Z,23.57
2018-11-25T18:35:44.227Z,24.10
2018-11-25T18:38:11.417Z,24.20
2018-11-25T18:40:38.645Z,23.97
2018-11-25T18:43:10.417Z,23.93
2018-11-25T18:45:37.615Z,25.03
2018-11-25T18:48:06.204Z,24.47
2018-11-25T18:50:51.971Z,24.10
2018-11-25T18:56:15.816Z,24.60
2018-11-25T19:01:51.277Z,23.77
2018-11-25T19:04:18.497Z,23.77
2018-11-25T19:06:45.714Z,23.90
2018-11-25T19:09:12.925Z,24.50
2018-11-25T19:11:40.114Z,23.93
2018-11-25T19:14:07.324Z,23.47
2018-11-25T19:16:34.652Z,24.00
2018-11-25T19:24:48.167Z,24.60
2018-11-25T19:30:15.744Z,23.93
2018-11-25T19:33:02.661Z,25.20
2018-11-25T19:35:29.901Z,23.77
2018-11-25T19:37:57.081Z,24.33
2018-11-25T19:40:27.932Z,23.83
2018-11-25T19:43:03.226Z,23.27
2018-11-25T19:48:32.192Z,24.07
2018-11-25T19:50:59.382Z,23.03
2018-11-25T19:53:51.557Z,23.83
2018-11-25T19:56:28.965Z,23.80
2018-11-25T19:58:58.309Z,23.50
2018-11-25T20:01:40.525Z,22.60
2018-11-25T20:04:21.192Z,25.40
2018-11-25T20:06:49.914Z,23.53
2018-11-25T20:09:17.143Z,24.73
2018-11-25T20:11:44.341Z,24.80
2018-11-25T20:14:11.538Z,24.20
2018-11-25T20:16:44.569Z,25.13
2018-11-25T20:19:11.760Z,24.73
2018-11-25T20:21:55.898Z,25.63
2018-11-25T20:24:35.360Z,25.10
2018-11-25T20:30:03.672Z,25.17
2018-11-25T20:32:36.608Z,24.60
2018-11-25T20:35:04.405Z,24.40
2018-11-25T20:37:31.601Z,25.33
2018-11-25T20:39:58.789Z,24.20
2018-11-25T20:42:25.959Z,24.83
2018-11-25T20:44:53.140Z,25.20
2018-11-25T20:47:20.338Z,26.33
2018-11-25T20:49:47.559Z,25.73
2018-11-25T20:52:20.585Z,25.27
2018-11-25T20:54:47.763Z,24.73
2018-11-25T20:57:33.858Z,24.67
2018-11-25T21:00:15.065Z,26.27
2018-11-25T21:02:41.198Z,25.40
2018-11-25T21:05:13.012Z,24.50
2018-11-25T21:07:40.217Z,24.23
2018-11-25T21:10:09.143Z,24.40
2018-11-25T21:12:37.349Z,24.77
2018-11-25T21:15:05.941Z,24.57
2018-11-25T21:17:33.117Z,23.93
2018-11-25T21:20:00.318Z,23.77
2018-11-25T21:22:27.500Z,24.80
2018-11-25T21:24:56.712Z,25.73
2018-11-25T21:27:23.897Z,23.13
2018-11-25T21:29:51.100Z,22.97
2018-11-25T21:32:18.275Z,22.03
2018-11-25T21:34:45.456Z,22.47
2018-11-25T21:37:12.753Z,24.47
2018-11-25T21:39:39.957Z,24.83
2018-11-25T21:42:07.588Z,22.93
2018-11-25T21:44:34.770Z,21.90
2018-11-25T21:47:01.941Z,25.35
2018-11-25T21:49:29.120Z,22.17
2018-11-25T21:51:56.410Z,21.17
2018-11-25T21:54:23.664Z,20.43
2018-11-25T21:56:50.879Z,21.50
2018-11-25T21:59:18.042Z,21.60
2018-11-25T22:05:24.904Z,21.53
2018-11-25T22:07:50.335Z,21.07
2018-11-25T22:10:19.417Z,21.30
2018-11-25T22:12:47.080Z,21.27
2018-11-25T22:15:20.474Z,22.00
2018-11-25T22:17:47.700Z,22.30
2018-11-25T22:20:15.592Z,20.80
2018-11-25T22:22:42.803Z,20.17
2018-11-25T22:25:11.083Z,19.37
2018-11-25T22:27:38.464Z,18.10
2018-11-25T22:30:08.400Z,18.57
2018-11-25T22:32:35.660Z,19.53
2018-11-25T22:35:02.925Z,19.10
2018-11-25T22:37:30.133Z,19.10
2018-11-25T22:39:57.403Z,18.27
2018-11-25T22:42:24.667Z,19.93
2018-11-25T22:44:51.864Z,18.13
2018-11-25T22:47:19.073Z,17.43
2018-11-25T22:49:46.246Z,18.93
2018-11-25T22:52:13.481Z,18.43
2018-11-25T22:54:40.688Z,19.10
2018-11-25T22:57:07.886Z,19.00
2018-11-25T22:59:35.049Z,19.23
2018-11-25T23:02:02.317Z,19.83
2018-11-25T23:04:41.260Z,20.60
2018-11-25T23:07:08.509Z,21.97
2018-11-25T23:09:35.697Z,21.67
2018-11-25T23:12:02.964Z,21.30
2018-11-25T23:14:30.156Z,21.80
2018-11-25T23:16:57.395Z,22.03
2018-11-25T23:19:24.560Z,22.93
2018-11-25T23:21:51.786Z,24.27
2018-11-25T23:24:18.963Z,24.00
2018-11-25T23:26:46.155Z,23.33
2018-11-25T23:29:13.424Z,22.80
2018-11-25T23:31:40.600Z,23.10
2018-11-25T23:34:07.809Z,23.17
2018-11-25T23:36:35.368Z,22.60
2018-11-25T23:39:03.565Z,22.33
2018-11-25T23:41:30.756Z,23.43
2018-11-25T23:43:57.924Z,21.47
2018-11-25T23:46:25.105Z,22.87
2018-11-25T23:48:52.273Z,22.93
2018-11-25T23:51:19.513Z,22.80
2018-11-25T23:53:46.692Z,22.33
2018-11-25T23:56:13.889Z,23.27
2018-11-25T23:58:41.117Z,23.13
